createdAt,value
2022-10-05T09:55:49.414Z,33.45
2022-10-05T09:58:56.139Z,33.52
2022-10-05T10:01:43.903Z,33.36
2022-10-05T10:04:38.764Z,33.26
2022-10-05T10:07:39.876Z,33.26
2022-10-05T10:10:49.674Z,33.29
2022-10-05T10:13:54.813Z,33.60
2022-10-05T10:16:38.645Z,33.56
2022-10-05T10:19:27.250Z,33.52
2022-10-05T10:22:42.269Z,33.57
2022-10-05T10:25:52.970Z,33.33
2022-10-05T10:28:58.024Z,33.36
2022-10-05T10:32:00.182Z,33.40
2022-10-05T10:34:58.485Z,33.53
2022-10-05T10:38:06.018Z,33.65
2022-10-05T10:40:45.718Z,33.49
2022-10-05T10:43:42.578Z,33.47
2022-10-05T10:46:28.992Z,33.58
2022-10-05T10:49:17.374Z,33.21
2022-10-05T10:52:16.543Z,33.27
2022-10-05T10:55:30.813Z,33.14
2022-10-05T10:58:41.295Z,33.34
2022-10-05T11:01:33.075Z,33.22
2022-10-05T11:04:47.751Z,33.18
2022-10-05T11:07:46.968Z,33.32
2022-10-05T11:10:52.215Z,33.24
2022-10-05T11:14:05.704Z,33.30
2022-10-05T11:17:24.669Z,33.25
2022-10-05T11:20:21.321Z,33.17
2022-10-05T11:23:08.373Z,33.11
2022-10-05T11:26:07.064Z,33.26
2022-10-05T11:28:54.938Z,33.30
2022-10-05T11:32:06.080Z,33.20
2022-10-05T11:35:06.702Z,33.19
2022-10-05T11:38:05.502Z,33.19
2022-10-05T11:40:59.948Z,33.01
2022-10-05T11:44:09.917Z,33.19
2022-10-05T11:46:52.089Z,33.05
2022-10-05T11:49:39.030Z,33.12
2022-10-05T11:52:22.219Z,33.26
2022-10-05T11:55:18.850Z,33.18
2022-10-05T11:57:59.029Z,33.22
2022-10-05T12:00:41.839Z,33.18
2022-10-05T12:03:41.118Z,32.84
2022-10-05T12:06:52.286Z,32.89
2022-10-05T12:09:39.353Z,32.92
2022-10-05T12:12:18.987Z,33.11
2022-10-05T12:15:00.819Z,33.18
2022-10-05T12:17:42.172Z,33.26
2022-10-05T12:20:20.592Z,32.98
2022-10-05T12:23:01.079Z,33.14
2022-10-05T12:25:38.198Z,32.99
2022-10-05T12:28:18.041Z,32.18
2022-10-05T12:31:09.443Z,31.84
2022-10-05T12:33:49.893Z,31.64
2022-10-05T12:36:35.908Z,31.22
2022-10-05T12:39:23.295Z,31.83
2022-10-05T12:42:07.228Z,31.84
2022-10-05T12:45:05.800Z,31.26
2022-10-05T12:47:53.893Z,31.80
2022-10-05T12:50:33.852Z,31.66
2022-10-05T12:53:23.952Z,32.26
2022-10-05T12:56:07.866Z,32.25
2022-10-05T12:58:52.368Z,31.38
2022-10-05T13:01:36.134Z,31.62
2022-10-05T13:04:21.333Z,31.59
2022-10-05T13:07:08.482Z,30.63
2022-10-05T13:09:46.087Z,30.90
2022-10-05T13:12:27.974Z,31.30
2022-10-05T13:15:06.490Z,31.03
2022-10-05T13:17:48.989Z,31.14
2022-10-05T13:20:30.691Z,31.55
2022-10-05T13:23:10.742Z,31.18
2022-10-05T13:25:47.921Z,31.43
2022-10-05T13:28:26.145Z,31.14
2022-10-05T13:31:08.225Z,30.89
2022-10-05T13:33:59.641Z,31.13
2022-10-05T13:36:42.384Z,31.38
2022-10-05T13:39:26.404Z,31.57
2022-10-05T13:42:07.353Z,31.46
2022-10-05T13:44:47.832Z,31.59
2022-10-05T13:47:27.257Z,31.69
2022-10-05T13:50:05.912Z,30.89
2022-10-05T13:52:49.261Z,31.23
2022-10-05T13:55:32.877Z,31.07
2022-10-05T13:58:09.332Z,31.30
2022-10-05T14:00:51.802Z,31.56
2022-10-05T14:03:36.388Z,30.65
2022-10-05T14:06:16.647Z,31.02
2022-10-05T14:08:54.795Z,31.05
2022-10-05T14:11:34.905Z,31.48
2022-10-05T14:14:17.302Z,31.81
2022-10-05T14:16:56.103Z,31.49
2022-10-05T14:19:31.227Z,30.67
2022-10-05T14:22:05.679Z,30.90
2022-10-05T14:24:44.287Z,30.27
2022-10-05T14:27:29.395Z,30.25
2022-10-05T14:30:03.620Z,30.13
2022-10-05T14:32:51.367Z,29.72
2022-10-05T14:35:26.832Z,31.01
2022-10-05T14:38:02.991Z,30.71
2022-10-05T14:40:36.754Z,30.51
2022-10-05T14:43:22.848Z,30.23
2022-10-05T14:46:02.767Z,30.78
2022-10-05T14:48:46.414Z,30.47
2022-10-05T14:51:33.348Z,31.21
2022-10-05T14:54:17.277Z,31.23
2022-10-05T14:56:57.892Z,31.31
2022-10-05T14:59:48.245Z,31.24
2022-10-05T15:02:46.412Z,31.33
2022-10-05T15:05:28.158Z,31.20
2022-10-05T15:08:10.162Z,31.17
2022-10-05T15:10:46.573Z,31.43
2022-10-05T15:13:21.648Z,30.12
2022-10-05T15:15:58.144Z,31.07
2022-10-05T15:18:39.526Z,30.95
2022-10-05T15:21:32.762Z,30.43
2022-10-05T15:24:10.778Z,30.38
2022-10-05T15:26:51.954Z,30.67
2022-10-05T15:29:43.378Z,30.62
2022-10-05T15:32:30.351Z,30.61
2022-10-05T15:35:32.049Z,30.28
2022-10-05T15:38:15.524Z,30.27
2022-10-05T15:40:56.273Z,30.24
2022-10-05T15:43:29.679Z,30.19
2022-10-05T15:46:15.314Z,30.25
2022-10-05T15:48:55.754Z,30.30
2022-10-05T15:51:52.290Z,29.95
2022-10-05T15:55:00.313Z,30.27
2022-10-05T15:57:42.314Z,30.28
2022-10-05T16:00:16.339Z,30.41
2022-10-05T16:02:55.363Z,30.54
2022-10-05T16:05:58.733Z,30.81
2022-10-05T16:08:59.972Z,31.01
2022-10-05T16:11:52.978Z,31.04
2022-10-05T16:14:37.515Z,30.93
2022-10-05T16:17:27.918Z,30.86
2022-10-05T16:20:16.108Z,30.69
2022-10-05T16:22:54.803Z,30.41
2022-10-05T16:25:34.851Z,30.54
2022-10-05T16:28:20.920Z,30.30
2022-10-05T16:31:02.284Z,30.30
2022-10-05T16:33:55.917Z,30.08
2022-10-05T16:36:45.902Z,29.93
2022-10-05T16:39:25.150Z,30.32
2022-10-05T16:42:05.410Z,30.48
2022-10-05T16:44:51.944Z,23.20
2022-10-05T16:47:49.692Z,30.46
2022-10-05T16:50:26.936Z,30.40
2022-10-05T16:53:03.918Z,30.33
2022-10-05T16:55:42.138Z,30.16
2022-10-05T16:58:21.736Z,30.36
2022-10-05T17:01:12.463Z,30.07
2022-10-05T17:03:58.639Z,30.12
2022-10-05T17:07:06.917Z,29.95
2022-10-05T17:09:54.279Z,29.81
2022-10-05T17:12:44.267Z,29.87
2022-10-05T17:15:31.011Z,30.03
2022-10-05T17:18:19.676Z,30.09
2022-10-05T17:21:04.700Z,30.11
2022-10-05T17:23:51.760Z,30.18
2022-10-05T17:26:58.408Z,29.60
2022-10-05T17:29:35.227Z,29.98
2022-10-05T17:32:37.857Z,29.98
2022-10-05T17:35:22.019Z,29.96
2022-10-05T17:38:21.959Z,29.74
2022-10-05T17:41:18.704Z,29.62
2022-10-05T17:44:29.856Z,29.08
2022-10-05T17:47:05.381Z,29.49
2022-10-05T17:50:19.065Z,29.80
2022-10-05T17:53:41.161Z,29.84
2022-10-05T17:56:13.301Z,29.48
2022-10-05T17:59:08.109Z,29.59
2022-10-05T18:01:41.667Z,29.13
2022-10-05T18:04:35.888Z,29.42
2022-10-05T18:07:21.171Z,29.56
2022-10-05T18:10:30.116Z,29.69
2022-10-05T18:13:36.252Z,29.64
2022-10-05T18:16:08.971Z,29.84
2022-10-05T18:18:59.622Z,29.69
2022-10-05T18:21:39.946Z,29.70
2022-10-05T18:24:50.443Z,29.89
2022-10-05T18:27:44.138Z,29.60
2022-10-05T18:30:24.461Z,29.37
2022-10-05T18:33:29.673Z,29.72
2022-10-05T18:36:16.807Z,29.81
2022-10-05T18:38:59.171Z,29.86
2022-10-05T18:41:43.494Z,29.90
2022-10-05T18:44:42.800Z,29.43
2022-10-05T18:47:25.713Z,29.64
2022-10-05T18:50:08.369Z,29.28
2022-10-05T18:52:58.249Z,29.45
2022-10-05T18:55:38.687Z,29.45
2022-10-05T18:58:29.665Z,29.40
2022-10-05T19:01:44.770Z,29.65
2022-10-05T19:04:27.822Z,29.31
2022-10-05T19:07:15.137Z,29.21
2022-10-05T19:10:06.555Z,28.88
2022-10-05T19:12:53.783Z,28.96
2022-10-05T19:15:32.652Z,28.88
2022-10-05T19:18:40.162Z,29.15
2022-10-05T19:21:26.039Z,29.37
2022-10-05T19:24:22.464Z,29.47
2022-10-05T19:27:08.214Z,29.39
2022-10-05T19:30:03.775Z,29.06
2022-10-05T19:32:50.708Z,29.29
2022-10-05T19:35:34.025Z,29.25
2022-10-05T19:41:04.960Z,29.25
2022-10-05T19:43:56.265Z,29.04
2022-10-05T19:46:43.947Z,29.34
2022-10-05T19:49:16.281Z,28.96
2022-10-05T19:51:53.875Z,29.38
2022-10-05T19:54:31.437Z,29.39
2022-10-05T19:57:04.535Z,29.32
2022-10-05T19:59:38.812Z,29.00
2022-10-05T20:02:18.489Z,28.95
2022-10-05T20:04:51.610Z,28.99
2022-10-05T20:07:24.874Z,29.31
2022-10-05T20:10:01.026Z,29.40
2022-10-05T20:12:52.034Z,29.23
2022-10-05T20:15:43.218Z,28.95
2022-10-05T20:19:00.500Z,29.18
2022-10-05T20:21:44.759Z,29.01
2022-10-05T20:24:18.718Z,29.11
2022-10-05T20:27:16.216Z,29.40
2022-10-05T20:29:48.740Z,29.23
2022-10-05T20:32:21.530Z,29.02
2022-10-05T20:34:56.968Z,28.74
2022-10-05T20:37:29.469Z,28.96
2022-10-05T20:40:02.119Z,29.00
2022-10-05T20:42:35.623Z,28.72
2022-10-05T20:45:09.420Z,28.58
2022-10-05T20:47:41.842Z,28.89
2022-10-05T20:50:14.387Z,28.57
2022-10-05T20:52:46.802Z,28.93
2022-10-05T20:55:19.226Z,29.04
2022-10-05T20:57:53.964Z,29.21
2022-10-05T21:00:25.876Z,29.08
2022-10-05T21:02:57.842Z,29.15
2022-10-05T21:05:30.649Z,29.07
2022-10-05T21:08:03.330Z,29.33
2022-10-05T21:10:35.300Z,29.34
2022-10-05T21:13:08.508Z,29.34
2022-10-05T21:15:40.674Z,29.23
2022-10-05T21:18:13.309Z,28.82
2022-10-05T21:20:52.014Z,28.88
2022-10-05T21:23:24.376Z,28.73
2022-10-05T21:25:56.389Z,28.95
2022-10-05T21:28:30.987Z,29.13
2022-10-05T21:31:03.057Z,29.28
2022-10-05T21:33:34.863Z,28.86
2022-10-05T21:36:07.286Z,28.78
2022-10-05T21:38:39.709Z,28.98
2022-10-05T21:41:11.906Z,29.28
2022-10-05T21:43:46.699Z,29.06
2022-10-05T21:46:21.684Z,29.06
2022-10-05T21:48:54.684Z,29.07
2022-10-05T21:51:28.445Z,28.90
2022-10-05T21:54:04.732Z,29.07
2022-10-05T21:56:39.326Z,29.12
2022-10-05T21:59:15.648Z,29.08
2022-10-05T22:01:47.774Z,29.23
2022-10-05T22:04:19.741Z,29.27
2022-10-05T22:06:52.024Z,28.97
2022-10-05T22:09:24.438Z,29.09
2022-10-05T22:11:56.337Z,29.01
2022-10-05T22:14:30.797Z,28.72
2022-10-05T22:17:03.299Z,28.68
2022-10-05T22:19:35.647Z,28.83
2022-10-05T22:22:11.686Z,28.66
2022-10-05T22:24:43.680Z,28.60
2022-10-05T22:27:15.918Z,28.58
2022-10-05T22:29:50.283Z,28.52
2022-10-05T22:32:22.270Z,28.69
2022-10-05T22:34:54.616Z,28.93
2022-10-05T22:37:26.602Z,28.93
2022-10-05T22:39:59.303Z,28.93
2022-10-05T22:42:30.977Z,28.88
2022-10-05T22:45:04.751Z,28.83
2022-10-05T22:47:37.018Z,28.68
2022-10-05T22:50:09.640Z,28.59
2022-10-05T22:52:41.199Z,28.52
2022-10-05T22:55:13.915Z,28.29
2022-10-05T22:57:46.564Z,28.25
2022-10-05T23:00:27.628Z,28.15
2022-10-05T23:03:03.354Z,28.38
2022-10-05T23:05:35.596Z,28.30
2022-10-05T23:08:08.464Z,28.10
2022-10-05T23:10:40.705Z,28.01
2022-10-05T23:13:12.708Z,28.52
2022-10-05T23:15:46.580Z,28.17
2022-10-05T23:18:18.981Z,28.05
2022-10-05T23:20:57.374Z,28.14
2022-10-05T23:23:29.943Z,28.34
2022-10-05T23:26:05.667Z,28.05
2022-10-05T23:28:38.005Z,27.93
2022-10-05T23:31:12.242Z,28.01
2022-10-05T23:33:44.433Z,28.20
2022-10-05T23:36:18.192Z,28.01
2022-10-05T23:38:50.161Z,27.98
2022-10-05T23:41:23.319Z,28.13
2022-10-05T23:43:56.160Z,28.44
2022-10-05T23:46:30.497Z,28.35
2022-10-05T23:49:02.510Z,28.02
2022-10-05T23:51:34.963Z,28.32
2022-10-05T23:54:07.690Z,28.27
2022-10-05T23:56:40.432Z,28.39
2022-10-05T23:59:12.497Z,28.01
